KFYM/FYM METAR and TAF weather

Enter ICAO airport designator
Station Type Date Time Source
KFYM METAR 2019/04/20 22:15 UTC NOAA

KFYM 202215Z AUTO VRB03KT 10SM OVC060 11/08 A2984 RMK A01


Station Type Date Time Source
KFYM Decoded METAR 2019/04/20 22:15 UTC NOAA

Station name not available
Apr 20, 2019 - 06:15 PM EDT / 2019.04.20 2215 UTC
Wind: Variable at 3 MPH (3 KT):0
Visibility: 10 mile(s):0
Sky conditions: overcast
Temperature: 51 F (11 C)
Dew Point: 46 F (8 C)
Relative Humidity: 81%
Pressure (altimeter): 29.84 in. Hg (1010 hPa)
ob: KFYM 202215Z AUTO VRB03KT 10SM OVC060 11/08 A2984 RMK A01
cycle: 22

Station Type Date Time Source
KFYM TAF 2009/08/31 19:45 UTC NOAA

METAR KFYM 311945Z AUTO 01006KT 10SM CLR 26/11 A3009
RMK AO1 T02550111 $

Example: see airport list